Ana Sayfa
METAR-TAF:

METAR-TAF

Havaalanları :

Port of Spain, Trinidad, Trinidad ve Tobago

Enlem: 10-37N, Boylam: 061-21W, yükseklik: 12 m

Güncel hava durumu gözlemi

Rapor saat 15:00 UTC de 1 saat ve 9 dakika önce yapıldı.
Rüzgar güneydoğudan 11 kt
Sıcaklık 32°C
Nem 56%
Basınç 1013 hPa
Görüş mesafesi 10 km veya daha fazla
2800 ft yükseklikte parçalı bulutlu

METAR: TTPP 041500Z 13011KT 9999 SCT028 32/22 Q1013 NOSIG

Saat: 12:09 (16:09 UTC)

Tahmin

Rapor saat 10:00 UTC de 6 saat ve 9 dakika önce yapıldı.
Ayın 04'si saat 12 UTC'den ayın 05'si saat 12 UTC'ye kadar geçerli Tahmin
Rüzgar doğu/güneydoğudan 12 kt
Görüş mesafesi 10 km veya daha fazla
2000 ft yükseklikte parçalı bulutlu
Dönüşüyor
ayın 04'si saat 23 UTC'den ayın 05'si saat 01 UTC'ye kadar
Rüzgar doğu/güneydoğudan 5 kt
1800 ft yükseklikte az bulutlu

TAF: TTPP 041000Z 0412/0512 12012KT 9999 SCT020 BECMG 0423/0501 11005KT FEW018

4.000'den fazla havaalanı için hava durumu gözlemleri ve tahminleri (METAR ve TAF raporları).

Kullanılabilir istasyonlar harita üzerinde sarı ve kırmızı noktalarla gösterilir.

İstasyonun adını görmek için fareyi noktanın üzerinde gezdirin.

Sonrasında hava gözlem ve tahminlerini görmek için tıklayın.

Haritayı değiştirmek için: yaklaştırmak için siyah artı işaretli yeşil düğmeye ve uzaklaştırmak için de eksi işaretli düğmeye hızla tıklayın; bitişik haritalar için yeşil okları kullanın.


METAR-TAF: